createdAt,value
2023-03-27T00:02:08.419Z,100674.19
2023-03-27T00:04:35.113Z,100681.50
2023-03-27T00:07:02.094Z,100679.59
2023-03-27T00:09:29.786Z,100675.69
2023-03-27T00:11:56.409Z,100685.25
2023-03-27T00:14:25.294Z,100683.19
2023-03-27T00:16:52.421Z,100694.63
2023-03-27T00:19:19.185Z,100694.41
2023-03-27T00:21:45.723Z,100684.25
2023-03-27T00:24:12.365Z,100683.84
2023-03-27T00:26:40.737Z,100680.31
2023-03-27T00:29:08.034Z,100680.59
2023-03-27T00:31:34.675Z,100671.72
2023-03-27T00:34:01.876Z,100681.78
2023-03-27T00:36:28.422Z,100680.47
2023-03-27T00:38:55.004Z,100689.09
2023-03-27T00:41:21.850Z,100681.09
2023-03-27T00:43:48.947Z,100688.56
2023-03-27T00:46:15.560Z,100692.47
2023-03-27T00:48:43.682Z,100695.41
2023-03-27T00:51:10.204Z,100697.13
2023-03-27T00:53:37.239Z,100699.50
2023-03-27T00:56:05.723Z,100707.75
2023-03-27T00:58:37.233Z,100700.00
2023-03-27T01:01:03.861Z,100695.63
2023-03-27T01:03:32.326Z,100704.72
2023-03-27T01:06:01.597Z,100702.06
2023-03-27T01:08:29.891Z,100706.50
2023-03-27T01:11:09.954Z,100703.41
2023-03-27T01:14:04.478Z,100702.38
2023-03-27T01:16:41.020Z,100698.44
2023-03-27T01:19:32.378Z,100689.97
2023-03-27T01:22:33.218Z,100686.69
2023-03-27T01:25:16.326Z,100686.81
2023-03-27T01:28:19.765Z,100691.34
2023-03-27T01:30:58.866Z,100692.25
2023-03-27T01:33:50.689Z,100692.78
2023-03-27T01:36:42.085Z,100700.88
2023-03-27T01:39:23.706Z,100710.78
2023-03-27T01:41:56.475Z,100709.81
2023-03-27T01:44:43.302Z,100715.56
2023-03-27T01:47:50.259Z,100719.69
2023-03-27T01:50:29.866Z,100718.94
2023-03-27T01:53:07.140Z,100712.66
2023-03-27T01:55:36.499Z,100715.53
2023-03-27T01:58:15.162Z,100724.97
2023-03-27T02:00:51.369Z,100726.56
2023-03-27T02:03:31.768Z,100729.47
2023-03-27T02:06:01.703Z,100736.16
2023-03-27T02:08:39.964Z,100728.59
2023-03-27T02:11:06.711Z,100729.75
2023-03-27T02:13:40.815Z,100730.00
2023-03-27T02:16:09.069Z,100730.72
2023-03-27T02:18:38.649Z,100736.25
2023-03-27T02:21:06.204Z,100732.34
2023-03-27T02:23:32.942Z,100732.00
2023-03-27T02:25:59.819Z,100745.19
2023-03-27T02:28:37.030Z,100739.50
2023-03-27T02:31:32.400Z,100748.06
2023-03-27T02:34:26.729Z,100752.53
2023-03-27T02:37:02.530Z,100741.59
2023-03-27T02:39:28.999Z,100758.69
2023-03-27T02:42:02.170Z,100754.34
2023-03-27T02:44:33.763Z,100752.25
2023-03-27T02:47:13.097Z,100756.91
2023-03-27T02:49:52.471Z,100753.81
2023-03-27T02:52:24.650Z,100758.03
2023-03-27T02:54:54.781Z,100762.88
2023-03-27T02:57:26.554Z,100760.31
2023-03-27T02:59:56.532Z,100764.44
2023-03-27T03:02:26.127Z,100771.00
2023-03-27T03:04:57.741Z,100768.44
2023-03-27T03:07:27.144Z,100760.53
2023-03-27T03:09:54.080Z,100767.31
2023-03-27T03:12:21.548Z,100768.88
2023-03-27T03:14:48.042Z,100772.59
2023-03-27T03:17:15.798Z,100779.44
2023-03-27T03:19:42.259Z,100780.19
2023-03-27T03:22:09.184Z,100780.75
2023-03-27T03:24:35.682Z,100785.56
2023-03-27T03:27:03.930Z,100787.31
2023-03-27T03:29:35.528Z,100791.84
2023-03-27T03:32:02.324Z,100796.53
2023-03-27T03:34:30.408Z,100793.72
2023-03-27T03:36:56.882Z,100800.34
2023-03-27T03:39:23.485Z,100806.97
2023-03-27T03:41:49.929Z,100801.19
2023-03-27T03:44:16.980Z,100812.03
2023-03-27T03:46:43.576Z,100812.91
2023-03-27T03:49:10.472Z,100814.34
2023-03-27T03:51:37.273Z,100816.81
2023-03-27T03:54:06.094Z,100809.03
2023-03-27T03:56:34.408Z,100814.72
2023-03-27T03:59:01.585Z,100815.56
2023-03-27T04:01:28.252Z,100817.00
2023-03-27T04:03:54.786Z,100821.94
2023-03-27T04:06:25.524Z,100817.34
2023-03-27T04:08:53.163Z,100825.66
2023-03-27T04:11:19.865Z,100827.13
2023-03-27T04:13:46.626Z,100832.66
2023-03-27T04:16:13.145Z,100827.59
2023-03-27T04:18:41.457Z,100825.25
2023-03-27T04:21:14.297Z,100830.97
2023-03-27T04:23:42.044Z,100842.69
2023-03-27T04:26:12.172Z,100841.28
2023-03-27T04:28:39.568Z,100849.22
2023-03-27T04:31:08.045Z,100845.72
2023-03-27T04:33:39.205Z,100842.31
2023-03-27T04:36:09.216Z,100847.06
2023-03-27T04:38:37.173Z,100844.06
2023-03-27T04:41:04.804Z,100857.13
2023-03-27T04:43:31.368Z,100866.44
2023-03-27T04:45:57.844Z,100861.19
2023-03-27T04:48:24.327Z,100870.53
2023-03-27T04:50:50.773Z,100874.22
2023-03-27T04:53:20.421Z,100876.78
2023-03-27T04:55:51.203Z,100875.88
2023-03-27T04:58:18.413Z,100877.84
2023-03-27T05:00:50.556Z,100884.97
2023-03-27T05:03:20.720Z,100886.06
2023-03-27T05:05:49.623Z,100887.56
2023-03-27T05:08:16.965Z,100877.56
2023-03-27T05:10:44.379Z,100880.00
2023-03-27T05:13:11.663Z,100887.47
2023-03-27T05:15:39.140Z,100886.06
2023-03-27T05:18:07.178Z,100893.91
2023-03-27T05:20:34.723Z,100892.06
2023-03-27T05:23:01.251Z,100898.00
2023-03-27T05:25:28.895Z,100899.28
2023-03-27T05:27:55.534Z,100907.19
2023-03-27T05:30:23.427Z,100902.88
2023-03-27T05:32:52.089Z,100900.75
2023-03-27T05:35:21.268Z,100903.84
2023-03-27T05:37:49.305Z,100907.59
2023-03-27T05:40:17.381Z,100915.63
2023-03-27T05:42:45.342Z,100920.06
2023-03-27T05:45:13.374Z,100928.91
2023-03-27T05:47:47.618Z,100929.84
2023-03-27T05:50:15.872Z,100929.66
2023-03-27T05:52:42.831Z,100938.75
2023-03-27T05:55:10.478Z,100932.22
2023-03-27T05:57:38.788Z,100950.13
2023-03-27T06:00:14.361Z,100951.72
2023-03-27T06:02:43.271Z,100950.97
2023-03-27T06:05:13.429Z,100956.28
2023-03-27T06:07:42.473Z,100954.47
2023-03-27T06:10:13.616Z,100968.84
2023-03-27T06:12:41.856Z,100962.19
2023-03-27T06:15:09.804Z,100963.41
2023-03-27T06:17:38.976Z,100951.72
2023-03-27T06:20:15.125Z,100940.66
2023-03-27T06:22:45.237Z,100940.00
2023-03-27T06:25:12.004Z,100943.31
2023-03-27T06:27:39.238Z,100951.47
2023-03-27T06:30:06.339Z,100955.56
2023-03-27T06:32:32.935Z,100963.69
2023-03-27T06:34:59.515Z,100960.00
2023-03-27T06:37:26.043Z,100962.72
2023-03-27T06:39:52.532Z,100966.84
2023-03-27T06:42:19.012Z,100975.94
2023-03-27T06:44:45.523Z,100985.38
2023-03-27T06:47:12.902Z,100975.78
2023-03-27T06:49:39.444Z,100981.00
2023-03-27T06:52:05.917Z,100989.03
2023-03-27T06:54:32.395Z,100991.53
2023-03-27T06:57:01.315Z,100993.41
2023-03-27T06:59:27.790Z,100998.25
2023-03-27T07:01:54.350Z,101005.50
2023-03-27T07:04:21.303Z,101007.28
2023-03-27T07:06:49.016Z,101003.47
2023-03-27T07:09:15.644Z,101009.94
2023-03-27T07:11:42.565Z,101011.56
2023-03-27T07:14:09.503Z,101019.28
2023-03-27T07:16:36.070Z,101015.31
2023-03-27T07:19:02.812Z,101025.53
2023-03-27T07:21:29.616Z,101035.03
2023-03-27T07:23:56.446Z,101026.78
2023-03-27T07:26:22.990Z,101030.00
2023-03-27T07:28:51.691Z,101030.72
2023-03-27T07:33:48.042Z,101032.91
2023-03-27T07:36:14.717Z,101041.28
2023-03-27T07:38:42.310Z,101034.13
2023-03-27T07:41:09.351Z,101033.59
2023-03-27T07:43:35.896Z,101038.56
2023-03-27T07:46:03.865Z,101037.78
2023-03-27T07:48:30.534Z,101040.44
2023-03-27T07:53:33.601Z,101041.41
2023-03-27T07:56:01.034Z,101048.00
2023-03-27T07:58:27.749Z,101050.19
2023-03-27T08:00:54.670Z,101045.44
2023-03-27T08:03:22.027Z,101051.53
2023-03-27T08:05:56.725Z,101051.25
2023-03-27T08:08:24.003Z,101042.19
2023-03-27T08:10:50.945Z,101055.75
2023-03-27T08:13:18.343Z,101063.13
2023-03-27T08:15:44.800Z,101054.44
2023-03-27T08:18:12.130Z,101056.53
2023-03-27T08:20:39.070Z,101060.28
2023-03-27T08:23:05.614Z,101061.66
2023-03-27T08:25:33.326Z,101063.06
2023-03-27T08:28:00.654Z,101066.88
2023-03-27T08:30:27.255Z,101060.69
2023-03-27T08:32:53.753Z,101068.53
2023-03-27T08:35:20.619Z,101066.78
2023-03-27T08:37:47.179Z,101066.28
2023-03-27T08:40:26.210Z,101072.59
2023-03-27T08:42:57.198Z,101068.34
2023-03-27T08:45:27.310Z,101075.63
2023-03-27T08:47:58.279Z,101071.94
2023-03-27T08:50:32.045Z,101075.78
2023-03-27T08:52:59.368Z,101079.56
2023-03-27T08:55:37.382Z,101082.06
2023-03-27T08:58:04.013Z,101076.91
2023-03-27T09:00:35.900Z,101094.66
2023-03-27T09:03:46.477Z,101097.88
2023-03-27T09:06:38.345Z,101085.97
2023-03-27T09:09:27.379Z,101081.09
2023-03-27T09:12:03.447Z,101093.38
2023-03-27T09:14:36.840Z,101091.81
2023-03-27T09:17:12.181Z,101093.75
2023-03-27T09:20:08.803Z,101073.84
2023-03-27T09:22:41.415Z,101078.84
2023-03-27T09:25:19.492Z,101086.81
2023-03-27T09:27:47.276Z,101099.34
2023-03-27T09:30:18.744Z,101095.06
2023-03-27T09:32:50.148Z,101101.22
2023-03-27T09:35:20.412Z,101107.66
2023-03-27T09:37:48.940Z,101099.69
2023-03-27T09:40:25.920Z,101094.66
2023-03-27T09:42:53.519Z,101103.31
2023-03-27T09:45:21.781Z,101097.94
2023-03-27T09:48:15.548Z,101105.59
2023-03-27T09:50:46.214Z,101112.09
2023-03-27T09:53:19.101Z,101100.03
2023-03-27T09:56:06.260Z,101105.66
2023-03-27T09:58:35.636Z,101109.03
2023-03-27T10:01:09.312Z,101113.38
2023-03-27T10:03:41.838Z,101108.13
2023-03-27T10:06:10.991Z,101111.81
2023-03-27T10:08:44.307Z,101101.06
2023-03-27T10:11:26.171Z,101106.22
2023-03-27T10:13:53.560Z,101109.16
2023-03-27T10:16:21.988Z,101105.06
2023-03-27T10:18:50.994Z,101098.06
2023-03-27T10:21:24.392Z,101100.16
2023-03-27T10:23:51.597Z,101110.91
2023-03-27T10:26:26.462Z,101111.75
2023-03-27T10:28:53.205Z,101123.47
2023-03-27T10:31:32.958Z,101118.09
2023-03-27T10:34:05.961Z,101129.81
2023-03-27T10:36:37.735Z,101136.59
2023-03-27T10:39:09.494Z,101137.03
2023-03-27T10:41:36.862Z,101135.53
2023-03-27T10:44:15.590Z,101127.44
2023-03-27T10:46:42.511Z,101120.53
2023-03-27T10:49:25.592Z,101131.75
2023-03-27T10:51:59.464Z,101137.81
2023-03-27T10:55:03.538Z,101119.84
2023-03-27T10:57:31.229Z,101123.94
2023-03-27T11:00:18.743Z,101125.91
2023-03-27T11:03:10.517Z,101135.69
2023-03-27T11:05:43.325Z,101132.13
2023-03-27T11:08:17.295Z,101138.25
2023-03-27T11:10:46.138Z,101132.19
2023-03-27T11:13:32.055Z,101129.66
2023-03-27T11:16:07.390Z,101139.38
2023-03-27T11:18:37.507Z,101133.09
2023-03-27T11:21:24.072Z,101137.69
2023-03-27T11:23:58.339Z,101159.69
2023-03-27T11:26:29.763Z,101179.69
2023-03-27T11:29:02.001Z,101216.84
2023-03-27T11:31:40.137Z,101227.16
2023-03-27T11:34:31.142Z,101230.88
2023-03-27T11:37:02.656Z,101230.03
2023-03-27T11:39:36.541Z,101229.81
2023-03-27T11:42:13.813Z,101228.91
2023-03-27T11:44:40.305Z,101221.78
2023-03-27T11:47:07.424Z,101209.66
2023-03-27T11:49:47.777Z,101212.88
2023-03-27T11:52:14.198Z,101220.28
2023-03-27T11:55:00.632Z,101207.41
2023-03-27T11:57:27.318Z,101214.78
2023-03-27T12:00:07.801Z,101207.53
2023-03-27T12:03:07.844Z,101224.38
2023-03-27T12:05:52.496Z,101206.59
2023-03-27T12:08:41.240Z,101219.50
2023-03-27T12:11:10.112Z,101224.38
2023-03-27T12:14:00.938Z,101214.34
2023-03-27T12:16:48.299Z,101191.28
2023-03-27T12:19:52.362Z,101192.53
2023-03-27T12:22:27.946Z,101176.53
2023-03-27T12:25:15.400Z,101174.34
2023-03-27T12:28:23.167Z,101171.34
2023-03-27T12:30:58.798Z,101161.28
2023-03-27T12:33:54.755Z,101164.16
2023-03-27T12:36:24.391Z,101149.16
2023-03-27T12:38:51.445Z,101135.69
2023-03-27T12:41:26.072Z,101148.22
2023-03-27T12:43:58.459Z,101153.38
2023-03-27T12:46:25.083Z,101156.31
2023-03-27T12:48:54.590Z,101155.56
2023-03-27T12:51:38.335Z,101149.41
2023-03-27T12:54:25.110Z,101167.03
2023-03-27T12:57:14.646Z,101177.63
2023-03-27T12:59:50.793Z,101174.16
2023-03-27T13:02:54.185Z,101167.53
2023-03-27T13:05:34.099Z,101167.72
2023-03-27T13:08:21.443Z,101156.38
2023-03-27T13:11:08.759Z,101168.69
2023-03-27T13:13:59.644Z,101164.81
2023-03-27T13:16:38.911Z,101189.03
2023-03-27T13:19:15.307Z,101183.56
2023-03-27T13:22:03.802Z,101186.53
2023-03-27T13:24:52.453Z,101200.06
2023-03-27T13:27:51.508Z,101212.69
2023-03-27T13:30:41.507Z,101201.91
2023-03-27T13:33:16.364Z,101192.88
2023-03-27T13:35:58.455Z,101193.31
2023-03-27T13:38:56.656Z,101187.97
2023-03-27T13:41:44.541Z,101188.31
2023-03-27T13:44:15.520Z,101188.19
2023-03-27T13:46:45.174Z,101182.03
2023-03-27T13:49:36.990Z,101187.50
2023-03-27T13:52:27.945Z,101183.47
2023-03-27T13:55:16.987Z,101171.28
2023-03-27T13:57:58.020Z,101189.66
2023-03-27T14:00:30.976Z,101180.25
2023-03-27T14:03:04.423Z,101172.38
2023-03-27T14:05:52.209Z,101171.75
2023-03-27T14:08:36.160Z,101168.53
2023-03-27T14:11:36.082Z,101180.41
2023-03-27T14:14:33.862Z,101180.44
2023-03-27T14:17:08.479Z,101173.78
2023-03-27T14:19:52.958Z,101178.44
2023-03-27T14:22:42.511Z,101178.75
2023-03-27T14:25:15.341Z,101182.91
2023-03-27T14:27:43.975Z,101194.34
2023-03-27T14:30:20.494Z,101201.19
2023-03-27T14:32:49.095Z,101225.81
2023-03-27T14:35:41.485Z,101228.00
2023-03-27T14:38:24.787Z,101222.50
2023-03-27T14:40:55.758Z,101227.59
2023-03-27T14:43:22.506Z,101210.66
2023-03-27T14:45:53.567Z,101215.88
2023-03-27T14:48:23.801Z,101211.34
2023-03-27T14:50:54.471Z,101215.94
2023-03-27T14:53:26.179Z,101211.00
2023-03-27T14:55:55.323Z,101212.44
2023-03-27T14:58:23.574Z,101210.63
2023-03-27T15:01:01.221Z,101198.13
2023-03-27T15:03:30.862Z,101200.44
2023-03-27T15:06:04.559Z,101202.53
2023-03-27T15:08:38.684Z,101201.06
2023-03-27T15:11:18.674Z,101201.91
2023-03-27T15:13:47.507Z,101202.09
2023-03-27T15:16:19.482Z,101208.69
2023-03-27T15:18:50.922Z,101215.53
2023-03-27T15:21:21.206Z,101214.94
2023-03-27T15:24:07.450Z,101223.28
2023-03-27T15:26:35.484Z,101222.69
2023-03-27T15:29:14.767Z,101212.06
2023-03-27T15:31:45.624Z,101247.53
2023-03-27T15:34:23.914Z,101260.94
2023-03-27T15:36:56.684Z,101244.06
2023-03-27T15:39:23.228Z,101241.84
2023-03-27T15:41:51.750Z,101234.78
2023-03-27T15:44:21.186Z,101256.06
2023-03-27T15:47:24.684Z,101232.69
2023-03-27T15:50:29.424Z,101227.78
2023-03-27T15:53:01.559Z,101221.19
2023-03-27T15:55:38.315Z,101217.34
2023-03-27T15:58:24.562Z,101211.78
2023-03-27T16:00:53.094Z,101227.56
2023-03-27T16:03:22.536Z,101225.22
2023-03-27T16:05:59.212Z,101227.56
2023-03-27T16:08:31.658Z,101234.66
2023-03-27T16:10:59.057Z,101231.28
2023-03-27T16:13:33.283Z,101232.72
2023-03-27T16:16:05.805Z,101242.94
2023-03-27T16:18:36.806Z,101243.50
2023-03-27T16:21:11.267Z,101263.03
2023-03-27T16:23:37.854Z,101256.31
2023-03-27T16:26:06.144Z,101261.72
2023-03-27T16:28:32.726Z,101256.56
2023-03-27T16:30:59.409Z,101258.66
2023-03-27T16:33:29.720Z,101269.16
2023-03-27T16:35:57.119Z,101266.41
2023-03-27T16:38:23.892Z,101266.25
2023-03-27T16:40:50.421Z,101268.34
2023-03-27T16:43:17.085Z,101272.41
2023-03-27T16:45:44.785Z,101271.19
2023-03-27T16:48:13.445Z,101287.63
2023-03-27T16:50:40.117Z,101286.66
2023-03-27T16:53:06.746Z,101266.28
2023-03-27T16:55:33.226Z,101274.72
2023-03-27T16:57:59.664Z,101286.75
2023-03-27T17:00:27.040Z,101296.50
2023-03-27T17:02:53.735Z,101299.66
2023-03-27T17:05:20.364Z,101304.88
2023-03-27T17:07:48.187Z,101296.13
2023-03-27T17:10:15.384Z,101291.34
2023-03-27T17:12:41.852Z,101290.44
2023-03-27T17:15:09.143Z,101301.03
2023-03-27T17:17:35.638Z,101294.13
2023-03-27T17:20:03.360Z,101292.09
2023-03-27T17:22:31.129Z,101304.41
2023-03-27T17:25:02.372Z,101305.78
2023-03-27T17:27:29.135Z,101302.81
2023-03-27T17:29:56.364Z,101309.72
2023-03-27T17:32:24.485Z,101315.13
2023-03-27T17:34:52.209Z,101325.88
2023-03-27T17:37:19.872Z,101328.38
2023-03-27T17:39:46.397Z,101324.13
2023-03-27T17:42:12.858Z,101334.34
2023-03-27T17:44:39.693Z,101335.44
2023-03-27T17:47:07.568Z,101338.47
2023-03-27T17:49:34.794Z,101346.19
2023-03-27T17:52:02.889Z,101344.19
2023-03-27T17:54:29.591Z,101350.03
2023-03-27T17:56:56.135Z,101349.44
2023-03-27T17:59:22.646Z,101344.19
2023-03-27T18:01:49.100Z,101347.44
2023-03-27T18:04:15.560Z,101338.13
2023-03-27T18:06:42.038Z,101354.19
2023-03-27T18:09:09.600Z,101355.31
2023-03-27T18:11:36.439Z,101359.13
2023-03-27T18:14:02.899Z,101357.00
2023-03-27T18:16:29.462Z,101364.81
2023-03-27T18:18:57.521Z,101357.75
2023-03-27T18:21:24.016Z,101362.38
2023-03-27T18:23:52.801Z,101360.16
2023-03-27T18:26:20.133Z,101358.06
2023-03-27T18:28:46.585Z,101361.06
2023-03-27T18:31:13.573Z,101361.91
2023-03-27T18:33:40.558Z,101367.66
2023-03-27T18:36:10.783Z,101361.56
2023-03-27T18:38:41.928Z,101392.09
2023-03-27T18:41:09.487Z,101378.47
2023-03-27T18:43:36.752Z,101381.41
2023-03-27T18:46:05.529Z,101376.66
2023-03-27T18:48:32.552Z,101382.25
2023-03-27T18:51:05.012Z,101368.81
2023-03-27T18:53:32.935Z,101387.69
2023-03-27T18:56:01.471Z,101398.81
2023-03-27T18:58:29.934Z,101400.91
2023-03-27T19:00:58.467Z,101404.25
2023-03-27T19:03:51.592Z,101414.34
2023-03-27T19:06:20.636Z,101398.75
2023-03-27T19:08:49.049Z,101407.09
2023-03-27T19:11:16.013Z,101376.09
2023-03-27T19:13:42.898Z,101374.03
2023-03-27T19:16:15.341Z,101373.94
2023-03-27T19:18:48.617Z,101383.16
2023-03-27T19:21:15.911Z,101389.00
2023-03-27T19:23:42.604Z,101390.19
2023-03-27T19:26:11.392Z,101384.78
2023-03-27T19:28:37.842Z,101397.00
2023-03-27T19:31:08.808Z,101392.53
2023-03-27T19:33:35.631Z,101383.16
2023-03-27T19:36:02.210Z,101392.53
2023-03-27T19:38:28.912Z,101399.56
2023-03-27T19:40:55.839Z,101403.78
2023-03-27T19:43:22.753Z,101399.56
2023-03-27T19:46:08.178Z,101405.81
2023-03-27T19:48:41.453Z,101400.78
2023-03-27T19:51:07.935Z,101406.59
2023-03-27T19:53:34.439Z,101397.50
2023-03-27T19:56:01.820Z,101404.44
2023-03-27T19:58:29.457Z,101402.06
2023-03-27T20:00:56.369Z,101403.66
2023-03-27T20:03:24.369Z,101400.69
2023-03-27T20:05:52.603Z,101401.78
2023-03-27T20:08:21.539Z,101402.94
2023-03-27T20:10:49.631Z,101402.84
2023-03-27T20:13:17.949Z,101409.56
2023-03-27T20:15:51.421Z,101410.47
2023-03-27T20:18:20.142Z,101406.84
2023-03-27T20:20:48.127Z,101402.34
2023-03-27T20:23:14.903Z,101414.94
2023-03-27T20:25:41.739Z,101417.63
2023-03-27T20:28:08.315Z,101426.03
2023-03-27T20:30:37.419Z,101417.69
2023-03-27T20:33:04.650Z,101418.28
2023-03-27T20:35:32.572Z,101416.81
2023-03-27T20:38:04.549Z,101411.81
2023-03-27T20:40:52.963Z,101423.81
2023-03-27T20:43:22.850Z,101422.88
2023-03-27T20:45:53.216Z,101427.19
2023-03-27T20:48:21.779Z,101419.16
2023-03-27T20:50:51.379Z,101420.72
2023-03-27T20:53:26.346Z,101420.38
2023-03-27T20:56:00.681Z,101418.06
2023-03-27T20:58:27.986Z,101412.72
2023-03-27T21:00:56.296Z,101419.38
2023-03-27T21:03:23.073Z,101427.81
2023-03-27T21:05:49.837Z,101433.22
2023-03-27T21:08:17.630Z,101422.69
2023-03-27T21:11:01.202Z,101419.56
2023-03-27T21:13:28.606Z,101425.88
2023-03-27T21:15:55.695Z,101421.50
2023-03-27T21:18:44.107Z,101428.63
2023-03-27T21:21:10.578Z,101444.31
2023-03-27T21:23:39.220Z,101443.72
2023-03-27T21:26:06.290Z,101460.59
2023-03-27T21:28:32.744Z,101467.91
2023-03-27T21:30:59.728Z,101472.28
2023-03-27T21:33:26.245Z,101471.22
2023-03-27T21:35:52.770Z,101475.09
2023-03-27T21:38:19.384Z,101484.22
2023-03-27T21:40:47.809Z,101480.78
2023-03-27T21:43:15.153Z,101493.53
2023-03-27T21:45:42.471Z,101488.00
2023-03-27T21:48:10.569Z,101494.50
2023-03-27T21:50:37.292Z,101488.09
2023-03-27T21:53:03.759Z,101487.00
2023-03-27T21:55:34.379Z,101493.44
2023-03-27T21:58:04.252Z,101489.22
2023-03-27T22:00:34.436Z,101491.72
2023-03-27T22:03:00.976Z,101492.59
2023-03-27T22:05:28.085Z,101496.25
2023-03-27T22:07:55.253Z,101490.28
2023-03-27T22:10:21.790Z,101498.53
2023-03-27T22:12:48.313Z,101506.34
2023-03-27T22:15:14.775Z,101505.91
2023-03-27T22:17:42.502Z,101510.97
2023-03-27T22:20:10.094Z,101510.69
2023-03-27T22:22:37.828Z,101511.03
2023-03-27T22:25:06.507Z,101529.88
2023-03-27T22:27:33.316Z,101523.78
2023-03-27T22:29:59.970Z,101541.97
2023-03-27T22:32:26.992Z,101543.66
2023-03-27T22:34:54.816Z,101538.06
2023-03-27T22:37:21.398Z,101541.59
2023-03-27T22:39:48.071Z,101551.75
2023-03-27T22:42:14.667Z,101551.75
2023-03-27T22:44:41.127Z,101555.38
2023-03-27T22:47:07.608Z,101561.75
2023-03-27T22:49:36.007Z,101559.66
2023-03-27T22:52:06.152Z,101566.50
2023-03-27T22:54:32.677Z,101578.06
2023-03-27T22:56:59.328Z,101585.00
2023-03-27T22:59:25.825Z,101582.72
2023-03-27T23:01:52.432Z,101584.94
2023-03-27T23:04:18.948Z,101590.31
2023-03-27T23:06:45.398Z,101593.16
2023-03-27T23:09:11.895Z,101597.75
2023-03-27T23:11:38.368Z,101599.81
2023-03-27T23:14:04.896Z,101613.63
2023-03-27T23:16:31.661Z,101620.50
2023-03-27T23:18:58.186Z,101627.59
2023-03-27T23:21:24.679Z,101619.28
2023-03-27T23:23:51.201Z,101634.22
2023-03-27T23:26:18.228Z,101645.88
2023-03-27T23:28:45.038Z,101646.19
2023-03-27T23:31:13.936Z,101652.19
2023-03-27T23:33:45.513Z,101650.22
2023-03-27T23:36:17.896Z,101654.28
2023-03-27T23:38:44.939Z,101657.22
2023-03-27T23:41:12.733Z,101665.34
2023-03-27T23:43:39.158Z,101666.94
2023-03-27T23:46:08.693Z,101684.41
2023-03-27T23:48:35.431Z,101676.69
2023-03-27T23:51:02.014Z,101680.13
2023-03-27T23:53:29.279Z,101694.66
2023-03-27T23:55:57.208Z,101689.50
2023-03-27T23:58:28.495Z,101694.41
